createdAt,value
2019-03-06T00:01:41.057Z,5.65
2019-03-06T00:04:10.654Z,2.12
2019-03-06T00:06:40.208Z,2.40
2019-03-06T00:09:09.802Z,3.70
2019-03-06T00:11:39.333Z,8.08
2019-03-06T00:14:08.974Z,3.52
2019-03-06T00:16:38.457Z,3.17
2019-03-06T00:19:08.032Z,3.90
2019-03-06T00:21:37.543Z,2.75
2019-03-06T00:24:07.141Z,3.55
2019-03-06T00:26:36.637Z,4.80
2019-03-06T00:29:06.360Z,4.65
2019-03-06T00:31:36.217Z,1.90
2019-03-06T00:34:05.872Z,3.52
2019-03-06T00:36:35.928Z,3.72
2019-03-06T00:39:07.689Z,3.75
2019-03-06T00:41:38.624Z,4.37
2019-03-06T00:44:08.122Z,4.95
2019-03-06T00:46:37.901Z,5.30
2019-03-06T00:49:07.456Z,3.87
2019-03-06T00:51:37.042Z,4.62
2019-03-06T00:54:06.665Z,5.37
2019-03-06T00:56:36.227Z,4.03
2019-03-06T00:59:05.848Z,4.53
2019-03-06T01:01:35.432Z,4.78
2019-03-06T01:04:04.994Z,5.03
2019-03-06T01:06:34.950Z,7.92
2019-03-06T01:09:06.116Z,6.10
2019-03-06T01:11:35.648Z,4.80
2019-03-06T01:14:05.283Z,5.60
2019-03-06T01:16:34.770Z,4.53
2019-03-06T01:19:04.333Z,5.50
2019-03-06T01:21:33.912Z,4.50
2019-03-06T01:24:03.469Z,4.50
2019-03-06T01:26:32.952Z,10.35
2019-03-06T01:29:02.440Z,5.67
2019-03-06T01:31:32.009Z,6.10
2019-03-06T01:34:03.220Z,6.45
2019-03-06T01:36:37.317Z,9.23
2019-03-06T01:39:12.091Z,10.18
2019-03-06T01:41:55.061Z,5.40
2019-03-06T01:44:26.261Z,4.80
2019-03-06T01:46:55.840Z,5.53
2019-03-06T01:49:25.499Z,5.78
2019-03-06T01:51:55.004Z,7.45
2019-03-06T01:54:24.504Z,6.28
2019-03-06T01:56:54.008Z,10.58
2019-03-06T01:59:23.505Z,6.12
2019-03-06T02:01:53.052Z,10.98
2019-03-06T02:04:22.602Z,5.83
2019-03-06T02:06:52.092Z,8.05
2019-03-06T02:09:22.138Z,6.97
2019-03-06T02:11:51.856Z,10.23
2019-03-06T02:14:21.433Z,8.18
2019-03-06T02:16:51.076Z,6.97
2019-03-06T02:19:20.696Z,9.58
2019-03-06T02:21:50.256Z,8.30
2019-03-06T02:24:20.124Z,16.82
2019-03-06T02:26:49.718Z,8.78
2019-03-06T02:29:19.182Z,7.75
2019-03-06T02:31:48.681Z,11.97
2019-03-06T02:34:18.254Z,6.42
2019-03-06T02:36:47.913Z,8.50
2019-03-06T02:39:17.540Z,11.57
2019-03-06T02:41:47.105Z,10.13
2019-03-06T02:44:16.589Z,6.62
2019-03-06T02:46:46.065Z,7.97
2019-03-06T02:49:15.847Z,8.03
2019-03-06T02:51:45.353Z,7.28
2019-03-06T02:54:14.894Z,11.63
2019-03-06T02:56:44.382Z,11.22
2019-03-06T02:59:18.034Z,7.22
2019-03-06T03:01:49.230Z,12.05
2019-03-06T03:04:20.408Z,10.15
2019-03-06T03:06:54.204Z,8.60
2019-03-06T03:09:23.695Z,9.50
2019-03-06T03:11:53.450Z,9.20
2019-03-06T03:14:22.935Z,9.48
2019-03-06T03:16:52.416Z,10.82
2019-03-06T03:19:21.906Z,11.65
2019-03-06T03:21:51.468Z,7.60
2019-03-06T03:24:21.264Z,8.20
2019-03-06T03:26:50.762Z,7.10
2019-03-06T03:29:20.230Z,8.93
2019-03-06T03:32:09.067Z,12.45
2019-03-06T03:34:38.544Z,8.75
2019-03-06T03:37:08.048Z,12.50
2019-03-06T03:39:37.533Z,11.00
2019-03-06T03:42:07.080Z,9.08
2019-03-06T03:44:36.601Z,8.15
2019-03-06T03:47:06.239Z,10.60
2019-03-06T03:49:35.733Z,8.38
2019-03-06T03:52:05.249Z,12.00
2019-03-06T03:54:34.890Z,9.30
2019-03-06T03:57:04.433Z,10.08
2019-03-06T03:59:33.908Z,7.33
2019-03-06T04:02:03.473Z,8.30
2019-03-06T04:04:32.970Z,11.60
2019-03-06T04:07:02.500Z,8.58
2019-03-06T04:09:31.983Z,7.53
2019-03-06T04:12:01.537Z,9.55
2019-03-06T04:14:31.037Z,7.55
2019-03-06T04:17:00.676Z,7.05
2019-03-06T04:19:30.199Z,9.45
2019-03-06T04:21:59.670Z,5.85
2019-03-06T04:24:29.452Z,8.18
2019-03-06T04:26:58.953Z,8.35
2019-03-06T04:29:28.510Z,6.80
2019-03-06T04:31:58.035Z,6.30
2019-03-06T04:34:27.485Z,7.05
2019-03-06T04:36:57.104Z,7.85
2019-03-06T04:39:26.658Z,10.40
2019-03-06T04:41:56.151Z,7.97
2019-03-06T04:44:25.634Z,6.72
2019-03-06T04:46:55.147Z,7.30
2019-03-06T04:49:24.666Z,7.12
2019-03-06T04:51:54.134Z,10.15
2019-03-06T04:54:23.667Z,7.40
2019-03-06T04:56:53.110Z,7.78
2019-03-06T04:59:22.618Z,8.13
2019-03-06T05:01:52.109Z,6.53
2019-03-06T05:04:21.621Z,7.37
2019-03-06T05:06:51.182Z,10.28
2019-03-06T05:09:20.659Z,6.17
2019-03-06T05:11:50.143Z,6.53
2019-03-06T05:14:19.646Z,7.72
2019-03-06T05:16:56.637Z,6.10
2019-03-06T05:19:26.136Z,6.47
2019-03-06T05:21:55.628Z,6.47
2019-03-06T05:24:25.275Z,8.28
2019-03-06T05:26:54.837Z,8.13
2019-03-06T05:29:24.325Z,6.45
2019-03-06T05:32:32.238Z,9.78
2019-03-06T05:35:06.076Z,8.33
2019-03-06T05:38:04.435Z,8.90
2019-03-06T05:40:33.996Z,9.05
2019-03-06T05:43:03.543Z,11.95
2019-03-06T05:45:33.145Z,7.47
2019-03-06T05:48:03.038Z,9.15
2019-03-06T05:50:32.591Z,10.50
2019-03-06T05:53:02.073Z,7.67
2019-03-06T05:55:50.898Z,11.22
2019-03-06T05:58:20.467Z,10.55
2019-03-06T06:00:49.947Z,13.08
2019-03-06T06:03:19.517Z,12.37
2019-03-06T06:05:49.092Z,11.68
2019-03-06T06:08:18.882Z,7.15
2019-03-06T06:10:48.348Z,9.33
2019-03-06T06:13:17.915Z,12.43
2019-03-06T06:15:47.394Z,9.43
2019-03-06T06:18:16.893Z,9.60
2019-03-06T06:20:48.214Z,9.78
2019-03-06T06:23:35.648Z,14.05
2019-03-06T06:26:05.145Z,10.82
2019-03-06T06:28:34.653Z,9.55
2019-03-06T06:31:04.212Z,10.55
2019-03-06T06:33:33.775Z,10.93
2019-03-06T06:36:03.259Z,9.85
2019-03-06T06:38:32.834Z,12.78
2019-03-06T06:41:02.606Z,14.95
2019-03-06T06:43:32.122Z,9.38
2019-03-06T06:46:01.679Z,12.23
2019-03-06T06:48:31.133Z,11.95
2019-03-06T06:51:16.957Z,12.47
2019-03-06T06:53:56.914Z,10.80
2019-03-06T06:56:48.909Z,10.08
2019-03-06T06:59:37.975Z,8.03
2019-03-06T07:02:34.877Z,12.40
2019-03-06T07:05:16.221Z,8.13
2019-03-06T07:08:03.558Z,8.88
2019-03-06T07:10:37.727Z,7.30
2019-03-06T07:13:09.032Z,10.35
2019-03-06T07:15:49.222Z,10.78
2019-03-06T07:18:29.647Z,8.85
2019-03-06T07:21:17.394Z,7.78
2019-03-06T07:24:00.943Z,7.70
2019-03-06T07:26:38.204Z,7.28
2019-03-06T07:29:25.590Z,8.60
2019-03-06T07:32:02.610Z,6.03
2019-03-06T07:34:33.761Z,15.63
2019-03-06T07:37:04.923Z,11.22
2019-03-06T07:39:36.077Z,8.88
2019-03-06T07:42:14.785Z,6.85
2019-03-06T07:45:23.718Z,7.55
2019-03-06T07:47:57.842Z,8.70
2019-03-06T07:50:32.915Z,6.90
2019-03-06T07:53:51.944Z,8.35
2019-03-06T07:56:30.686Z,6.50
2019-03-06T07:59:04.131Z,7.05
2019-03-06T08:01:57.540Z,8.80
2019-03-06T08:04:27.641Z,6.90
2019-03-06T08:07:15.672Z,9.40
2019-03-06T08:09:48.701Z,5.17
2019-03-06T08:12:24.595Z,8.20
2019-03-06T08:15:12.254Z,7.27
2019-03-06T08:17:50.339Z,9.90
2019-03-06T08:20:22.976Z,3.97
2019-03-06T08:23:10.627Z,4.07
2019-03-06T08:25:49.385Z,3.10
2019-03-06T08:28:23.560Z,3.60
2019-03-06T08:31:09.560Z,5.10
2019-03-06T08:33:40.391Z,5.87
2019-03-06T08:36:14.696Z,4.03
2019-03-06T08:38:44.280Z,2.67
2019-03-06T08:41:13.927Z,6.43
2019-03-06T08:43:43.880Z,4.50
2019-03-06T08:46:20.868Z,3.07
2019-03-06T08:48:59.000Z,8.90
2019-03-06T08:51:28.470Z,4.63
2019-03-06T08:54:15.051Z,3.50
2019-03-06T08:56:55.088Z,2.20
2019-03-06T08:59:35.692Z,2.77
2019-03-06T09:02:05.116Z,3.67
2019-03-06T09:04:36.900Z,2.27
2019-03-06T09:07:17.346Z,2.23
2019-03-06T09:09:57.564Z,2.93
2019-03-06T09:12:34.967Z,7.97
2019-03-06T09:15:12.903Z,2.60
2019-03-06T09:18:08.800Z,5.53
2019-03-06T09:20:53.220Z,3.90
2019-03-06T09:23:36.416Z,5.53
2019-03-06T09:26:23.071Z,3.43
2019-03-06T09:29:00.972Z,2.03
2019-03-06T09:31:46.103Z,1.90
2019-03-06T09:34:17.511Z,2.40
2019-03-06T09:37:03.960Z,2.37
2019-03-06T09:39:37.950Z,1.90
2019-03-06T09:42:27.953Z,2.43
2019-03-06T09:45:15.421Z,5.10
2019-03-06T09:47:52.755Z,4.10
2019-03-06T09:50:27.538Z,2.90
2019-03-06T09:53:05.752Z,1.77
2019-03-06T09:55:38.059Z,2.10
2019-03-06T09:58:10.366Z,2.00
2019-03-06T10:00:41.557Z,7.27
2019-03-06T10:03:13.540Z,3.37
2019-03-06T10:05:50.124Z,2.33
2019-03-06T10:08:29.865Z,3.23
2019-03-06T10:11:10.040Z,3.77
2019-03-06T10:13:44.089Z,1.57
2019-03-06T10:16:31.842Z,2.50
2019-03-06T10:19:08.314Z,2.30
2019-03-06T10:21:38.116Z,1.87
2019-03-06T10:24:07.685Z,6.90
2019-03-06T10:26:37.185Z,2.30
2019-03-06T10:29:07.282Z,3.43
2019-03-06T10:31:38.598Z,2.60
2019-03-06T10:34:08.280Z,4.17
2019-03-06T10:36:37.764Z,3.67
2019-03-06T10:39:08.884Z,3.27
2019-03-06T10:41:38.767Z,8.10
2019-03-06T10:44:08.344Z,3.40
2019-03-06T10:46:38.016Z,1.93
2019-03-06T10:49:07.671Z,2.33
2019-03-06T10:51:37.163Z,4.80
2019-03-06T10:54:06.788Z,2.17
2019-03-06T10:56:36.270Z,2.30
2019-03-06T10:59:06.621Z,2.57
2019-03-06T11:01:36.223Z,3.10
2019-03-06T11:04:16.935Z,4.13
2019-03-06T11:06:46.557Z,1.83
2019-03-06T11:09:16.262Z,3.30
2019-03-06T11:11:45.894Z,2.13
2019-03-06T11:14:15.599Z,1.30
2019-03-06T11:16:45.153Z,2.63
2019-03-06T11:19:15.327Z,4.00
2019-03-06T11:21:44.901Z,2.70
2019-03-06T11:24:14.603Z,4.23
2019-03-06T11:26:44.271Z,2.17
2019-03-06T11:29:14.064Z,3.87
2019-03-06T11:31:44.684Z,4.07
2019-03-06T11:34:14.343Z,3.10
2019-03-06T11:36:43.909Z,4.70
2019-03-06T11:39:13.884Z,4.17
2019-03-06T11:41:43.351Z,2.70
2019-03-06T11:44:13.175Z,2.60
2019-03-06T11:46:42.738Z,5.10
2019-03-06T11:49:12.418Z,2.70
2019-03-06T11:51:42.142Z,3.47
2019-03-06T11:54:12.044Z,2.80
2019-03-06T11:56:42.301Z,2.80
2019-03-06T11:59:11.930Z,3.27
2019-03-06T12:01:47.858Z,4.20
2019-03-06T12:04:14.702Z,2.77
2019-03-06T12:06:44.247Z,4.33
2019-03-06T12:09:27.054Z,2.53
2019-03-06T12:11:57.059Z,2.90
2019-03-06T12:14:26.837Z,4.30
2019-03-06T12:16:56.551Z,2.97
2019-03-06T12:19:26.192Z,2.67
2019-03-06T12:21:56.451Z,3.83
2019-03-06T12:24:25.967Z,7.23
2019-03-06T12:26:55.453Z,2.10
2019-03-06T12:29:25.111Z,7.13
2019-03-06T12:31:54.647Z,2.37
2019-03-06T12:34:24.228Z,2.00
2019-03-06T12:36:53.979Z,2.77
2019-03-06T12:39:23.613Z,2.63
2019-03-06T12:41:53.300Z,3.53
2019-03-06T12:44:22.739Z,2.90
2019-03-06T12:46:52.371Z,1.70
2019-03-06T12:49:22.096Z,2.03
2019-03-06T12:51:54.667Z,2.40
2019-03-06T12:54:22.929Z,1.60
2019-03-06T12:56:52.479Z,3.37
2019-03-06T12:59:22.029Z,3.60
2019-03-06T13:01:51.596Z,3.40
2019-03-06T13:04:21.181Z,2.50
2019-03-06T13:06:50.813Z,1.30
2019-03-06T13:09:20.846Z,4.93
2019-03-06T13:11:50.418Z,3.40
2019-03-06T13:14:20.022Z,2.70
2019-03-06T13:16:49.671Z,4.37
2019-03-06T13:19:19.238Z,3.20
2019-03-06T13:21:48.843Z,2.47
2019-03-06T13:24:18.508Z,3.40
2019-03-06T13:26:48.078Z,3.60
2019-03-06T13:29:17.929Z,3.57
2019-03-06T13:31:47.655Z,2.47
2019-03-06T13:34:18.902Z,1.43
2019-03-06T13:36:48.415Z,6.07
2019-03-06T13:39:17.980Z,2.07
2019-03-06T13:41:47.566Z,3.27
2019-03-06T13:44:18.971Z,4.03
2019-03-06T13:46:48.471Z,3.23
2019-03-06T13:49:18.039Z,2.03
2019-03-06T13:51:47.678Z,4.93
2019-03-06T13:54:17.254Z,3.53
2019-03-06T13:56:46.745Z,7.67
2019-03-06T13:59:16.324Z,8.33
2019-03-06T14:01:45.957Z,4.33
2019-03-06T14:04:15.676Z,4.40
2019-03-06T14:06:45.167Z,4.30
2019-03-06T14:09:16.582Z,2.93
2019-03-06T14:11:46.386Z,3.43
2019-03-06T14:14:15.876Z,4.43
2019-03-06T14:16:45.424Z,2.60
2019-03-06T14:19:15.153Z,2.03
2019-03-06T14:21:44.756Z,2.57
2019-03-06T14:24:14.360Z,3.47
2019-03-06T14:26:44.003Z,2.60
2019-03-06T14:29:13.714Z,3.73
2019-03-06T14:31:43.729Z,3.47
2019-03-06T14:34:13.470Z,4.87
2019-03-06T14:36:43.060Z,6.00
2019-03-06T14:39:27.887Z,2.30
2019-03-06T14:41:58.527Z,5.70
2019-03-06T14:44:28.106Z,5.73
2019-03-06T14:46:57.725Z,5.60
2019-03-06T14:49:27.417Z,4.80
2019-03-06T14:51:56.954Z,4.93
2019-03-06T14:54:45.791Z,4.93
2019-03-06T14:57:15.437Z,3.63
2019-03-06T14:59:45.244Z,3.23
2019-03-06T15:02:14.810Z,2.30
2019-03-06T15:04:44.433Z,4.07
2019-03-06T15:07:14.126Z,6.40
2019-03-06T15:09:43.621Z,4.20
2019-03-06T15:12:13.278Z,3.63
2019-03-06T15:14:42.904Z,3.23
2019-03-06T15:17:12.555Z,5.60
2019-03-06T15:19:42.177Z,3.23
2019-03-06T15:22:11.686Z,2.70
2019-03-06T15:24:41.945Z,4.70
2019-03-06T15:27:11.627Z,3.20
2019-03-06T15:29:41.430Z,2.03
2019-03-06T15:32:11.006Z,7.13
2019-03-06T15:34:40.639Z,2.23
2019-03-06T15:37:10.227Z,3.37
2019-03-06T15:39:46.692Z,3.40
2019-03-06T15:42:12.578Z,2.20
2019-03-06T15:44:42.140Z,2.73
2019-03-06T15:47:11.925Z,3.20
2019-03-06T15:49:41.599Z,2.37
2019-03-06T15:52:11.537Z,2.83
2019-03-06T15:54:41.121Z,2.87
2019-03-06T15:57:10.763Z,5.23
2019-03-06T15:59:40.393Z,1.93
2019-03-06T16:02:10.248Z,4.10
2019-03-06T16:04:39.893Z,5.23
2019-03-06T16:07:09.560Z,2.70
2019-03-06T16:09:39.678Z,3.10
2019-03-06T16:12:09.377Z,1.77
2019-03-06T16:14:39.083Z,5.07
2019-03-06T16:17:08.779Z,2.40
2019-03-06T16:19:38.334Z,4.13
2019-03-06T16:22:07.990Z,3.27
2019-03-06T16:24:37.781Z,3.77
2019-03-06T16:27:07.467Z,5.03
2019-03-06T16:29:37.036Z,2.77
2019-03-06T16:32:06.740Z,2.27
2019-03-06T16:34:36.368Z,4.60
2019-03-06T16:37:06.389Z,2.60
2019-03-06T16:39:35.966Z,3.20
2019-03-06T16:42:05.597Z,3.10
2019-03-06T16:44:35.164Z,2.67
2019-03-06T16:47:06.895Z,4.47
2019-03-06T16:49:36.107Z,2.57
2019-03-06T16:52:05.855Z,1.83
2019-03-06T16:54:35.594Z,2.23
2019-03-06T16:57:05.163Z,5.13
2019-03-06T16:59:34.809Z,3.20
2019-03-06T17:02:04.440Z,1.83
2019-03-06T17:04:34.326Z,6.20
2019-03-06T17:07:03.979Z,1.83
2019-03-06T17:09:33.632Z,1.50
2019-03-06T17:12:03.383Z,6.43
2019-03-06T17:14:32.955Z,5.93
2019-03-06T17:17:02.492Z,3.60
2019-03-06T17:19:32.021Z,4.63
2019-03-06T17:22:01.687Z,1.83
2019-03-06T17:24:31.297Z,6.43
2019-03-06T17:27:00.866Z,5.00
2019-03-06T17:29:30.487Z,5.10
2019-03-06T17:32:00.486Z,4.30
2019-03-06T17:34:30.138Z,4.43
2019-03-06T17:37:01.675Z,3.77
2019-03-06T17:39:31.269Z,2.90
2019-03-06T17:42:00.827Z,1.70
2019-03-06T17:44:30.302Z,4.50
2019-03-06T17:46:59.803Z,3.40
2019-03-06T17:49:29.365Z,3.63
2019-03-06T17:51:58.875Z,5.73
2019-03-06T17:54:28.444Z,5.00
2019-03-06T17:56:58.012Z,2.50
2019-03-06T17:59:27.846Z,4.30
2019-03-06T18:01:57.669Z,2.73
2019-03-06T18:04:27.252Z,3.03
2019-03-06T18:06:56.811Z,4.00
2019-03-06T18:09:26.481Z,6.10
2019-03-06T18:11:56.157Z,2.60
2019-03-06T18:14:25.711Z,2.93
2019-03-06T18:16:55.290Z,5.27
2019-03-06T18:19:24.816Z,4.57
2019-03-06T18:21:54.434Z,5.53
2019-03-06T18:24:24.028Z,2.90
2019-03-06T18:26:53.588Z,5.50
2019-03-06T18:29:23.161Z,2.67
2019-03-06T18:31:52.810Z,1.80
2019-03-06T18:34:22.442Z,3.77
2019-03-06T18:36:52.025Z,2.30
2019-03-06T18:39:21.771Z,3.73
2019-03-06T18:41:51.421Z,5.00
2019-03-06T18:44:21.020Z,1.80
2019-03-06T18:46:50.575Z,2.43
2019-03-06T18:49:20.140Z,4.63
2019-03-06T18:51:49.762Z,3.60
2019-03-06T18:54:19.321Z,2.17
2019-03-06T18:56:49.068Z,4.23
2019-03-06T18:59:18.658Z,2.47
2019-03-06T19:01:48.287Z,3.77
2019-03-06T19:04:17.797Z,3.10
2019-03-06T19:06:47.376Z,2.00
2019-03-06T19:09:16.989Z,3.40
2019-03-06T19:11:46.803Z,2.93
2019-03-06T19:14:16.418Z,4.00
2019-03-06T19:16:46.021Z,4.90
2019-03-06T19:19:15.615Z,3.20
2019-03-06T19:21:45.179Z,3.00
2019-03-06T19:24:14.684Z,5.33
2019-03-06T19:26:44.319Z,12.90
2019-03-06T19:29:13.917Z,4.87
2019-03-06T19:31:43.478Z,4.70
2019-03-06T19:34:13.035Z,4.00
2019-03-06T19:36:42.525Z,2.83
2019-03-06T19:39:12.207Z,2.47
2019-03-06T19:41:41.775Z,3.43
2019-03-06T19:44:11.426Z,4.13
2019-03-06T19:46:40.926Z,5.93
2019-03-06T19:49:10.555Z,3.47
2019-03-06T19:51:40.064Z,4.07
2019-03-06T19:54:09.650Z,2.80
2019-03-06T19:56:39.343Z,3.77
2019-03-06T19:59:09.006Z,3.30
2019-03-06T20:01:38.650Z,5.50
2019-03-06T20:04:08.320Z,2.30
2019-03-06T20:06:37.929Z,2.47
2019-03-06T20:09:23.568Z,2.00
2019-03-06T20:11:53.404Z,4.57
2019-03-06T20:14:23.047Z,3.00
2019-03-06T20:16:52.666Z,2.80
2019-03-06T20:19:22.216Z,3.53
2019-03-06T20:21:51.878Z,3.60
2019-03-06T20:24:21.485Z,2.77
2019-03-06T20:26:51.106Z,3.33
2019-03-06T20:29:20.752Z,3.63
2019-03-06T20:31:50.403Z,6.20
2019-03-06T20:34:20.022Z,2.40
2019-03-06T20:36:49.898Z,5.10
2019-03-06T20:39:19.530Z,2.57
2019-03-06T20:41:49.188Z,2.70
2019-03-06T20:44:18.752Z,13.57
2019-03-06T20:46:48.420Z,3.47
2019-03-06T20:49:17.956Z,2.53
2019-03-06T20:51:47.780Z,3.87
2019-03-06T20:54:17.273Z,3.20
2019-03-06T20:56:46.877Z,3.43
2019-03-06T20:59:16.967Z,4.40
2019-03-06T21:01:46.504Z,4.10
2019-03-06T21:04:16.017Z,3.13
2019-03-06T21:06:45.907Z,3.70
2019-03-06T21:09:17.074Z,6.30
2019-03-06T21:11:46.978Z,2.63
2019-03-06T21:14:16.563Z,3.97
2019-03-06T21:16:46.052Z,6.83
2019-03-06T21:19:15.804Z,2.97
2019-03-06T21:21:45.386Z,2.33
2019-03-06T21:24:14.934Z,3.70
2019-03-06T21:26:44.633Z,6.50
2019-03-06T21:29:14.208Z,3.73
2019-03-06T21:31:43.796Z,2.93
2019-03-06T21:34:13.428Z,4.57
2019-03-06T21:36:43.109Z,3.47
2019-03-06T21:39:23.898Z,4.30
2019-03-06T21:41:53.578Z,4.07
2019-03-06T21:44:23.248Z,2.40
2019-03-06T21:46:52.830Z,5.97
2019-03-06T21:49:22.438Z,3.53
2019-03-06T21:51:51.999Z,3.07
2019-03-06T21:54:21.967Z,4.60
2019-03-06T21:56:51.451Z,3.60
2019-03-06T21:59:20.952Z,3.40
2019-03-06T22:01:50.443Z,5.10
2019-03-06T22:04:20.021Z,3.13
2019-03-06T22:06:49.579Z,4.70
2019-03-06T22:09:19.558Z,3.03
2019-03-06T22:11:49.058Z,5.53
2019-03-06T22:14:18.611Z,3.73
2019-03-06T22:16:49.830Z,5.73
2019-03-06T22:19:19.373Z,4.90
2019-03-06T22:21:48.875Z,4.70
2019-03-06T22:24:18.429Z,3.20
2019-03-06T22:26:48.435Z,5.30
2019-03-06T22:29:17.929Z,5.93
2019-03-06T22:31:47.437Z,3.90
2019-03-06T22:34:16.924Z,5.13
2019-03-06T22:36:46.484Z,3.60
2019-03-06T22:39:16.048Z,2.50
2019-03-06T22:41:45.533Z,3.20
2019-03-06T22:44:15.043Z,2.70
2019-03-06T22:46:44.622Z,3.13
2019-03-06T22:49:14.133Z,3.40
2019-03-06T22:51:43.895Z,2.40
2019-03-06T22:54:13.377Z,4.33
2019-03-06T22:56:42.892Z,3.13
2019-03-06T22:59:12.406Z,3.00
2019-03-06T23:01:43.004Z,3.80
2019-03-06T23:04:12.579Z,2.53
2019-03-06T23:06:42.165Z,3.17
2019-03-06T23:09:12.400Z,5.30
2019-03-06T23:11:42.357Z,2.57
2019-03-06T23:14:12.024Z,4.47
2019-03-06T23:16:41.518Z,2.47
2019-03-06T23:19:10.993Z,5.70
2019-03-06T23:21:40.630Z,4.47
2019-03-06T23:24:10.274Z,3.23
2019-03-06T23:26:43.118Z,2.90
2019-03-06T23:29:11.107Z,3.93
2019-03-06T23:31:41.797Z,3.63
2019-03-06T23:34:11.375Z,3.00
2019-03-06T23:36:40.932Z,3.80
2019-03-06T23:39:12.700Z,2.33
2019-03-06T23:41:42.259Z,4.03
2019-03-06T23:44:12.120Z,3.80
2019-03-06T23:46:41.728Z,3.47
2019-03-06T23:49:11.255Z,7.27
2019-03-06T23:51:42.383Z,3.83
2019-03-06T23:54:11.883Z,4.90
2019-03-06T23:56:43.965Z,4.20
2019-03-06T23:59:12.686Z,3.27
